createdAt,value
2022-10-31T00:01:36.831Z,15.33
2022-10-31T00:04:05.889Z,21.13
2022-10-31T00:06:34.008Z,18.30
2022-10-31T00:09:04.191Z,17.13
2022-10-31T00:11:32.404Z,15.73
2022-10-31T00:14:00.752Z,17.33
2022-10-31T00:16:29.252Z,14.53
2022-10-31T00:18:59.406Z,16.50
2022-10-31T00:21:28.804Z,15.03
2022-10-31T00:24:00.088Z,15.97
2022-10-31T00:26:32.418Z,14.53
2022-10-31T00:29:01.913Z,15.83
2022-10-31T00:31:32.176Z,14.43
2022-10-31T00:34:00.954Z,14.13
2022-10-31T00:36:29.071Z,14.43
2022-10-31T00:38:59.345Z,13.93
2022-10-31T00:41:27.474Z,13.33
2022-10-31T00:43:54.630Z,13.80
2022-10-31T00:46:27.291Z,14.03
2022-10-31T00:48:55.501Z,13.43
2022-10-31T00:51:22.825Z,12.60
2022-10-31T00:53:50.109Z,13.23
2022-10-31T00:56:18.285Z,12.83
2022-10-31T00:58:46.004Z,12.97
2022-10-31T01:01:13.370Z,12.40
2022-10-31T01:03:43.369Z,12.60
2022-10-31T01:06:15.623Z,12.83
2022-10-31T01:08:44.487Z,12.13
2022-10-31T01:11:18.905Z,13.17
2022-10-31T01:13:47.488Z,13.07
2022-10-31T01:16:20.267Z,13.40
2022-10-31T01:18:48.738Z,14.20
2022-10-31T01:21:22.110Z,13.87
2022-10-31T01:23:52.137Z,14.53
2022-10-31T01:26:28.633Z,13.83
2022-10-31T01:29:02.908Z,13.17
2022-10-31T01:31:35.804Z,13.87
2022-10-31T01:34:06.234Z,13.17
2022-10-31T01:36:38.823Z,13.40
2022-10-31T01:39:08.935Z,13.57
2022-10-31T01:41:45.299Z,14.47
2022-10-31T01:44:16.531Z,13.20
2022-10-31T01:46:56.497Z,14.30
2022-10-31T01:49:33.596Z,13.33
2022-10-31T01:52:26.371Z,13.80
2022-10-31T01:55:00.989Z,12.97
2022-10-31T01:57:32.609Z,12.73
2022-10-31T02:00:05.961Z,13.90
2022-10-31T02:02:41.822Z,13.67
2022-10-31T02:05:15.492Z,14.00
2022-10-31T02:07:58.450Z,13.17
2022-10-31T02:10:33.821Z,13.53
2022-10-31T02:13:06.082Z,12.83
2022-10-31T02:15:39.320Z,12.37
2022-10-31T02:18:07.830Z,13.00
2022-10-31T02:21:02.979Z,12.07
2022-10-31T02:23:49.557Z,11.47
2022-10-31T02:26:43.644Z,12.50
2022-10-31T02:29:42.518Z,12.70
2022-10-31T02:32:28.316Z,12.13
2022-10-31T02:35:19.885Z,13.47
2022-10-31T02:38:08.562Z,13.07
2022-10-31T02:41:01.043Z,11.80
2022-10-31T02:44:01.925Z,11.53
2022-10-31T02:46:51.185Z,11.43
2022-10-31T02:49:45.534Z,12.17
2022-10-31T02:52:25.732Z,12.33
2022-10-31T02:54:57.417Z,12.83
2022-10-31T02:57:35.815Z,12.63
2022-10-31T03:00:07.178Z,11.53
2022-10-31T03:02:45.722Z,12.57
2022-10-31T03:05:23.854Z,11.40
2022-10-31T03:08:11.903Z,12.07
2022-10-31T03:11:00.293Z,11.93
2022-10-31T03:13:53.126Z,11.13
2022-10-31T03:16:21.282Z,11.23
2022-10-31T03:19:02.770Z,11.20
2022-10-31T03:21:41.609Z,12.13
2022-10-31T03:24:12.329Z,11.50
2022-10-31T03:26:53.928Z,12.17
2022-10-31T03:29:26.588Z,12.47
2022-10-31T03:32:21.781Z,11.83
2022-10-31T03:34:51.043Z,12.67
2022-10-31T03:37:21.801Z,12.83
2022-10-31T03:39:51.284Z,13.73
2022-10-31T03:42:26.760Z,13.83
2022-10-31T03:45:14.611Z,13.70
2022-10-31T03:47:44.656Z,13.40
2022-10-31T03:50:14.344Z,13.00
2022-10-31T03:53:07.422Z,13.80
2022-10-31T03:56:21.685Z,13.47
2022-10-31T03:59:07.954Z,13.20
2022-10-31T04:01:42.424Z,14.47
2022-10-31T04:04:12.004Z,14.10
2022-10-31T04:06:44.273Z,14.10
2022-10-31T04:09:12.253Z,13.67
2022-10-31T04:11:49.878Z,13.63
2022-10-31T04:14:40.354Z,13.57
2022-10-31T04:17:15.978Z,12.00
2022-10-31T04:19:44.339Z,14.23
2022-10-31T04:22:12.102Z,13.80
2022-10-31T04:24:43.321Z,15.37
2022-10-31T04:27:15.738Z,14.90
2022-10-31T04:29:46.909Z,14.73
2022-10-31T04:32:18.944Z,14.93
2022-10-31T04:34:47.557Z,15.93
2022-10-31T04:37:14.861Z,15.77
2022-10-31T04:39:43.122Z,15.77
2022-10-31T04:42:33.459Z,15.07
2022-10-31T04:45:07.384Z,15.33
2022-10-31T04:47:36.489Z,14.47
2022-10-31T04:50:04.973Z,14.70
2022-10-31T04:52:43.748Z,14.80
2022-10-31T04:55:16.024Z,13.93
2022-10-31T04:58:02.078Z,13.50
2022-10-31T05:00:30.850Z,15.00
2022-10-31T05:03:00.302Z,14.80
2022-10-31T05:05:31.447Z,14.63
2022-10-31T05:08:02.689Z,14.97
2022-10-31T05:10:32.615Z,14.90
2022-10-31T05:13:04.512Z,14.50
2022-10-31T05:15:51.124Z,14.63
2022-10-31T05:18:24.130Z,14.87
2022-10-31T05:21:12.350Z,13.97
2022-10-31T05:23:49.527Z,14.43
2022-10-31T05:26:17.959Z,15.00
2022-10-31T05:28:45.666Z,14.13
2022-10-31T05:31:12.988Z,12.87
2022-10-31T05:33:41.265Z,13.63
2022-10-31T05:36:40.870Z,13.00
2022-10-31T05:39:16.133Z,13.87
2022-10-31T05:41:50.049Z,13.30
2022-10-31T05:44:27.100Z,13.50
2022-10-31T05:47:25.369Z,13.63
2022-10-31T05:50:26.594Z,12.77
2022-10-31T05:53:07.011Z,12.47
2022-10-31T05:55:44.312Z,13.10
2022-10-31T05:58:19.568Z,11.70
2022-10-31T06:01:01.867Z,13.20
2022-10-31T06:03:30.789Z,12.10
2022-10-31T06:06:05.012Z,10.37
2022-10-31T06:08:38.333Z,12.17
2022-10-31T06:11:11.781Z,9.73
2022-10-31T06:13:57.602Z,9.50
2022-10-31T06:16:36.028Z,9.17
2022-10-31T06:19:23.658Z,8.63
2022-10-31T06:21:55.492Z,8.53
2022-10-31T06:24:24.249Z,8.23
2022-10-31T06:26:54.584Z,7.87
2022-10-31T06:29:22.479Z,7.83
2022-10-31T06:32:05.895Z,7.60
2022-10-31T06:34:42.331Z,6.90
2022-10-31T06:37:16.996Z,7.50
2022-10-31T06:39:48.467Z,7.87
2022-10-31T06:42:19.167Z,8.23
2022-10-31T06:44:49.321Z,8.13
2022-10-31T06:48:15.605Z,9.57
2022-10-31T06:50:58.602Z,8.63
2022-10-31T06:53:30.905Z,9.13
2022-10-31T06:56:03.721Z,9.33
2022-10-31T06:58:36.004Z,9.33
2022-10-31T07:01:14.271Z,10.43
2022-10-31T07:03:42.263Z,11.33
2022-10-31T07:06:10.462Z,11.73
2022-10-31T07:08:39.583Z,12.30
2022-10-31T07:11:09.988Z,12.73
2022-10-31T07:13:40.400Z,13.57
2022-10-31T07:16:14.759Z,13.03
2022-10-31T07:18:43.539Z,12.47
2022-10-31T07:21:12.333Z,12.17
2022-10-31T07:23:41.663Z,12.83
2022-10-31T07:26:29.204Z,13.37
2022-10-31T07:28:56.892Z,13.27
2022-10-31T07:31:27.151Z,13.47
2022-10-31T07:33:59.617Z,13.07
2022-10-31T07:36:30.826Z,13.40
2022-10-31T07:39:04.216Z,14.03
2022-10-31T07:41:36.250Z,12.77
2022-10-31T07:44:03.479Z,12.17
2022-10-31T07:46:30.848Z,12.27
2022-10-31T07:49:21.630Z,13.53
2022-10-31T07:52:08.611Z,13.73
2022-10-31T07:54:42.842Z,13.63
2022-10-31T07:57:11.168Z,12.77
2022-10-31T07:59:39.401Z,13.00
2022-10-31T08:02:18.058Z,13.77
2022-10-31T08:05:04.597Z,13.23
2022-10-31T08:07:51.703Z,12.57
2022-10-31T08:10:24.035Z,12.50
2022-10-31T08:13:10.913Z,12.20
2022-10-31T08:15:43.380Z,12.23
2022-10-31T08:18:14.684Z,13.20
2022-10-31T08:20:45.691Z,13.10
2022-10-31T08:23:14.595Z,12.33
2022-10-31T08:25:44.448Z,12.03
2022-10-31T08:28:27.540Z,12.50
2022-10-31T08:30:59.328Z,12.13
2022-10-31T08:33:41.613Z,12.50
2022-10-31T08:36:30.591Z,12.90
2022-10-31T08:39:20.431Z,13.13
2022-10-31T08:41:48.692Z,12.67
2022-10-31T08:44:16.858Z,11.83
2022-10-31T08:46:48.735Z,12.13
2022-10-31T08:49:15.991Z,10.57
2022-10-31T08:51:44.652Z,10.50
2022-10-31T08:54:14.009Z,10.23
2022-10-31T08:56:56.797Z,10.57
2022-10-31T08:59:47.490Z,11.10
2022-10-31T09:02:27.861Z,10.17
2022-10-31T09:05:09.707Z,10.60
2022-10-31T09:07:37.624Z,10.00
2022-10-31T09:10:06.206Z,11.30
2022-10-31T09:12:46.991Z,11.00
2022-10-31T09:15:35.869Z,11.43
2022-10-31T09:18:24.323Z,11.00
2022-10-31T09:21:01.994Z,11.87
2022-10-31T09:23:35.451Z,11.87
2022-10-31T09:26:03.800Z,12.03
2022-10-31T09:28:38.098Z,13.10
2022-10-31T09:31:15.758Z,12.40
2022-10-31T09:33:55.910Z,11.43
2022-10-31T09:36:41.484Z,11.60
2022-10-31T09:39:14.404Z,11.47
2022-10-31T09:42:10.375Z,11.37
2022-10-31T09:45:17.356Z,12.27
2022-10-31T09:48:05.976Z,12.03
2022-10-31T09:50:45.098Z,11.77
2022-10-31T09:53:48.208Z,12.43
2022-10-31T09:56:24.529Z,12.40
2022-10-31T09:59:00.776Z,12.63
2022-10-31T10:01:52.703Z,12.37
2022-10-31T10:04:39.145Z,15.30
2022-10-31T10:07:33.799Z,13.77
2022-10-31T10:10:09.741Z,14.27
2022-10-31T10:13:34.885Z,13.70
2022-10-31T10:16:40.066Z,13.00
2022-10-31T10:19:40.483Z,12.90
2022-10-31T10:22:23.689Z,13.53
2022-10-31T10:25:35.592Z,15.17
2022-10-31T10:28:12.083Z,16.13
2022-10-31T10:30:56.931Z,17.70
2022-10-31T10:33:32.664Z,15.63
2022-10-31T10:36:31.824Z,16.67
2022-10-31T10:39:05.645Z,16.67
2022-10-31T10:42:10.133Z,15.37
2022-10-31T10:45:04.120Z,15.77
2022-10-31T10:47:44.991Z,16.00
2022-10-31T10:50:23.839Z,16.23
2022-10-31T10:53:00.871Z,15.43
2022-10-31T10:55:38.317Z,15.90
2022-10-31T10:58:11.350Z,15.73
2022-10-31T11:00:44.388Z,16.97
2022-10-31T11:03:12.034Z,15.83
2022-10-31T11:06:02.933Z,16.20
2022-10-31T11:08:34.755Z,15.43
2022-10-31T11:11:08.246Z,16.97
2022-10-31T11:13:38.281Z,16.43
2022-10-31T11:16:07.508Z,16.60
2022-10-31T11:18:40.442Z,17.27
2022-10-31T11:21:29.777Z,17.37
2022-10-31T11:24:12.299Z,17.70
2022-10-31T11:26:47.554Z,17.77
2022-10-31T11:29:27.160Z,17.13
2022-10-31T11:32:01.623Z,18.57
2022-10-31T11:34:39.547Z,18.33
2022-10-31T11:37:18.096Z,23.17
2022-10-31T11:39:54.531Z,37.03
2022-10-31T11:42:28.370Z,21.10
2022-10-31T11:44:56.850Z,37.00
2022-10-31T11:47:33.783Z,21.67
2022-10-31T11:50:10.687Z,20.13
2022-10-31T11:52:40.336Z,18.03
2022-10-31T11:55:13.678Z,17.80
2022-10-31T11:57:51.420Z,18.03
2022-10-31T12:00:30.979Z,28.23
2022-10-31T12:03:24.447Z,31.90
2022-10-31T12:06:26.161Z,73.70
2022-10-31T12:08:53.583Z,24.40
2022-10-31T12:11:55.165Z,22.00
2022-10-31T12:14:41.150Z,18.87
2022-10-31T12:17:14.281Z,15.27
2022-10-31T12:20:04.464Z,15.20
2022-10-31T12:22:50.234Z,16.03
2022-10-31T12:25:35.340Z,17.27
2022-10-31T12:28:11.590Z,19.97
2022-10-31T12:30:56.868Z,17.87
2022-10-31T12:33:55.763Z,16.60
2022-10-31T12:36:52.192Z,15.47
2022-10-31T12:39:45.220Z,16.83
2022-10-31T12:42:23.245Z,15.37
2022-10-31T12:45:29.239Z,14.67
2022-10-31T12:48:24.379Z,14.83
2022-10-31T12:51:35.179Z,14.87
2022-10-31T12:54:18.384Z,15.20
2022-10-31T12:57:27.448Z,23.23
2022-10-31T13:00:17.042Z,17.20
2022-10-31T13:03:25.011Z,15.53
2022-10-31T13:05:59.557Z,15.47
2022-10-31T13:09:01.412Z,14.70
2022-10-31T13:11:38.061Z,17.00
2022-10-31T13:14:28.361Z,17.33
2022-10-31T13:16:57.377Z,16.17
2022-10-31T13:19:32.830Z,23.37
2022-10-31T13:22:05.873Z,26.10
2022-10-31T13:24:48.304Z,18.70
2022-10-31T13:27:32.269Z,22.20
2022-10-31T13:30:05.387Z,18.83
2022-10-31T13:32:53.890Z,31.80
2022-10-31T13:35:56.484Z,39.90
2022-10-31T13:38:36.039Z,20.73
2022-10-31T13:41:12.573Z,18.60
2022-10-31T13:44:09.465Z,19.70
2022-10-31T13:46:40.853Z,17.43
2022-10-31T13:49:30.864Z,16.23
2022-10-31T13:52:07.472Z,15.97
2022-10-31T13:54:38.838Z,15.93
2022-10-31T13:57:34.889Z,16.03
2022-10-31T14:00:24.172Z,16.00
2022-10-31T14:02:58.562Z,18.60
2022-10-31T14:05:36.932Z,78.13
2022-10-31T14:08:07.000Z,118.27
2022-10-31T14:10:38.239Z,32.63
2022-10-31T14:13:29.288Z,19.70
2022-10-31T14:16:21.869Z,15.90
2022-10-31T14:19:03.864Z,20.97
2022-10-31T14:21:38.677Z,21.00
2022-10-31T14:24:15.390Z,19.23
2022-10-31T14:26:56.793Z,14.83
2022-10-31T14:29:30.389Z,18.50
2022-10-31T14:32:13.822Z,17.93
2022-10-31T14:34:57.439Z,18.07
2022-10-31T14:37:57.798Z,18.77
2022-10-31T14:41:16.303Z,16.33
2022-10-31T14:44:12.880Z,15.70
2022-10-31T14:47:20.842Z,15.77
2022-10-31T14:49:58.204Z,17.40
2022-10-31T14:52:25.641Z,16.37
2022-10-31T14:54:57.822Z,16.33
2022-10-31T14:57:27.748Z,16.33
2022-10-31T15:00:03.957Z,16.27
2022-10-31T15:02:41.581Z,16.03
2022-10-31T15:05:11.532Z,16.93
2022-10-31T15:07:52.184Z,16.90
2022-10-31T15:10:33.283Z,16.70
2022-10-31T15:13:19.050Z,16.87
2022-10-31T15:15:52.081Z,16.00
2022-10-31T15:18:26.943Z,16.60
2022-10-31T15:20:56.613Z,17.13
2022-10-31T15:23:31.569Z,16.83
2022-10-31T15:26:06.237Z,17.13
2022-10-31T15:28:34.492Z,16.70
2022-10-31T15:31:04.325Z,17.00
2022-10-31T15:33:46.984Z,17.87
2022-10-31T15:36:24.118Z,18.87
2022-10-31T15:38:58.543Z,23.33
2022-10-31T15:41:55.255Z,22.27
2022-10-31T15:44:36.702Z,22.30
2022-10-31T15:47:17.030Z,22.00
2022-10-31T15:49:56.125Z,22.60
2022-10-31T15:52:49.296Z,26.43
2022-10-31T15:55:25.874Z,26.10
2022-10-31T15:58:11.378Z,26.57
2022-10-31T16:00:39.988Z,28.00
2022-10-31T16:03:31.128Z,28.90
2022-10-31T16:06:05.675Z,29.50
2022-10-31T16:08:53.773Z,30.07
2022-10-31T16:11:36.191Z,29.43
2022-10-31T16:14:33.301Z,28.50
2022-10-31T16:17:03.141Z,30.63
2022-10-31T16:19:33.030Z,31.63
2022-10-31T16:22:13.209Z,30.27
2022-10-31T16:25:23.974Z,32.47
2022-10-31T16:27:58.552Z,29.80
2022-10-31T16:30:48.529Z,27.70
2022-10-31T16:33:31.966Z,29.90
2022-10-31T16:36:36.332Z,26.73
2022-10-31T16:39:04.841Z,24.57
2022-10-31T16:41:56.018Z,26.40
2022-10-31T16:44:28.299Z,26.43
2022-10-31T16:47:11.303Z,26.10
2022-10-31T16:49:39.880Z,23.93
2022-10-31T16:52:07.271Z,23.93
2022-10-31T16:54:35.534Z,23.37
2022-10-31T16:57:05.210Z,22.87
2022-10-31T16:59:34.742Z,22.93
2022-10-31T17:02:04.813Z,22.60
2022-10-31T17:04:33.482Z,22.20
2022-10-31T17:07:01.817Z,22.67
2022-10-31T17:09:30.069Z,23.47
2022-10-31T17:12:03.048Z,22.80
2022-10-31T17:14:33.082Z,22.63
2022-10-31T17:17:06.270Z,21.93
2022-10-31T17:19:35.134Z,22.43
2022-10-31T17:22:03.219Z,23.03
2022-10-31T17:24:31.480Z,22.33
2022-10-31T17:27:00.768Z,22.07
2022-10-31T17:29:28.066Z,19.40
2022-10-31T17:31:55.230Z,17.33
2022-10-31T17:34:25.760Z,17.87
2022-10-31T17:36:54.370Z,14.40
2022-10-31T17:39:23.246Z,12.47
2022-10-31T17:41:58.529Z,12.63
2022-10-31T17:44:27.923Z,13.33
2022-10-31T17:46:55.127Z,14.90
2022-10-31T17:49:27.487Z,15.13
2022-10-31T17:51:55.797Z,15.67
2022-10-31T17:54:24.038Z,15.90
2022-10-31T17:56:54.615Z,14.40
2022-10-31T17:59:22.324Z,15.37
2022-10-31T18:01:49.636Z,14.63
2022-10-31T18:04:25.347Z,13.73
2022-10-31T18:06:52.595Z,14.20
2022-10-31T18:09:21.817Z,15.53
2022-10-31T18:11:51.022Z,16.07
2022-10-31T18:14:19.151Z,16.07
2022-10-31T18:16:52.628Z,16.20
2022-10-31T18:19:20.074Z,16.03
2022-10-31T18:21:47.358Z,14.90
2022-10-31T18:24:14.518Z,14.13
2022-10-31T18:26:42.770Z,15.80
2022-10-31T18:29:11.742Z,16.73
2022-10-31T18:31:39.073Z,18.17
2022-10-31T18:34:07.234Z,18.80
2022-10-31T18:36:38.437Z,19.60
2022-10-31T18:39:05.710Z,20.30
2022-10-31T18:41:35.676Z,20.53
2022-10-31T18:44:02.889Z,21.37
2022-10-31T18:46:31.657Z,18.67
2022-10-31T18:49:03.524Z,20.60
2022-10-31T18:51:31.783Z,20.37
2022-10-31T18:54:03.300Z,19.40
2022-10-31T18:56:45.254Z,21.07
2022-10-31T18:59:14.493Z,24.30
2022-10-31T19:01:57.950Z,25.03
2022-10-31T19:04:29.841Z,26.83
2022-10-31T19:07:04.208Z,26.37
2022-10-31T19:09:34.555Z,24.70
2022-10-31T19:12:03.246Z,24.50
2022-10-31T19:14:35.153Z,22.77
2022-10-31T19:17:03.382Z,24.40
2022-10-31T19:19:32.191Z,23.97
2022-10-31T19:22:02.113Z,23.67
2022-10-31T19:24:31.573Z,24.23
2022-10-31T19:27:00.808Z,22.83
2022-10-31T19:29:32.824Z,25.83
2022-10-31T19:32:07.193Z,23.63
2022-10-31T19:34:35.609Z,21.80
2022-10-31T19:37:08.730Z,22.17
2022-10-31T19:39:39.827Z,23.57
2022-10-31T19:42:17.694Z,22.53
2022-10-31T19:44:46.072Z,22.63
2022-10-31T19:47:16.279Z,22.70
2022-10-31T19:49:43.509Z,21.47
2022-10-31T19:52:10.849Z,23.77
2022-10-31T19:54:39.416Z,21.37
2022-10-31T19:57:06.630Z,20.40
2022-10-31T19:59:38.970Z,21.80
2022-10-31T20:02:07.856Z,21.57
2022-10-31T20:04:37.055Z,20.60
2022-10-31T20:07:04.391Z,18.70
2022-10-31T20:09:50.160Z,18.47
2022-10-31T20:12:18.659Z,18.23
2022-10-31T20:14:50.881Z,18.90
2022-10-31T20:17:19.131Z,18.03
2022-10-31T20:20:08.960Z,17.87
2022-10-31T20:22:38.880Z,17.90
2022-10-31T20:25:08.449Z,16.97
2022-10-31T20:27:35.650Z,17.93
2022-10-31T20:30:04.209Z,19.37
2022-10-31T20:32:32.468Z,17.80
2022-10-31T20:34:59.630Z,18.33
2022-10-31T20:37:29.999Z,20.47
2022-10-31T20:39:58.398Z,18.63
2022-10-31T20:42:26.628Z,19.17
2022-10-31T20:45:07.639Z,18.23
2022-10-31T20:47:37.980Z,16.90
2022-10-31T20:50:06.989Z,18.87
2022-10-31T20:52:34.729Z,18.40
2022-10-31T20:55:03.990Z,17.63
2022-10-31T20:57:33.353Z,18.50
2022-10-31T21:00:00.969Z,18.10
2022-10-31T21:02:30.225Z,18.23
2022-10-31T21:04:59.500Z,18.97
2022-10-31T21:07:32.209Z,18.10
2022-10-31T21:10:00.568Z,18.80
2022-10-31T21:12:39.480Z,19.83
2022-10-31T21:15:07.190Z,17.77
2022-10-31T21:17:38.520Z,18.13
2022-10-31T21:20:08.198Z,17.87
2022-10-31T21:22:35.479Z,17.43
2022-10-31T21:25:03.703Z,18.90
2022-10-31T21:27:32.678Z,18.73
2022-10-31T21:30:01.567Z,16.80
2022-10-31T21:32:29.735Z,19.20
2022-10-31T21:35:04.996Z,18.50
2022-10-31T21:37:32.214Z,19.30
2022-10-31T21:39:59.500Z,19.23
2022-10-31T21:42:31.613Z,18.83
2022-10-31T21:44:58.771Z,18.27
2022-10-31T21:47:27.897Z,18.03
2022-10-31T21:49:55.196Z,19.03
2022-10-31T21:52:25.930Z,18.67
2022-10-31T21:54:53.121Z,16.90
2022-10-31T22:00:13.670Z,15.60
2022-10-31T22:02:41.912Z,15.40
2022-10-31T22:05:10.396Z,16.13
2022-10-31T22:07:37.721Z,15.80
2022-10-31T22:10:06.259Z,15.73
2022-10-31T22:12:35.445Z,16.63
2022-10-31T22:15:02.611Z,16.00
2022-10-31T22:17:34.830Z,16.73
2022-10-31T22:20:03.307Z,17.23
2022-10-31T22:22:30.451Z,15.80
2022-10-31T22:24:57.672Z,16.03
2022-10-31T22:27:24.796Z,16.07
2022-10-31T22:29:56.543Z,15.77
2022-10-31T22:32:27.489Z,16.83
2022-10-31T22:34:55.905Z,17.13
2022-10-31T22:37:24.475Z,17.70
2022-10-31T22:39:57.819Z,16.83
2022-10-31T22:42:29.105Z,16.20
2022-10-31T22:44:57.282Z,16.30
2022-10-31T22:47:32.508Z,15.20
2022-10-31T22:49:59.770Z,15.17
2022-10-31T22:52:34.063Z,14.20
2022-10-31T22:55:03.392Z,13.67
2022-10-31T22:57:30.501Z,13.60
2022-10-31T22:59:57.730Z,14.37
2022-10-31T23:02:29.914Z,14.50
2022-10-31T23:04:58.148Z,13.57
2022-10-31T23:07:29.475Z,13.63
2022-10-31T23:10:06.039Z,14.37
2022-10-31T23:12:52.580Z,13.00
2022-10-31T23:15:19.798Z,12.77
2022-10-31T23:17:47.950Z,11.50
2022-10-31T23:20:15.156Z,12.47
2022-10-31T23:22:46.389Z,12.03
2022-10-31T23:25:33.479Z,11.87
2022-10-31T23:28:00.781Z,10.87
2022-10-31T23:30:30.946Z,11.87
2022-10-31T23:32:58.121Z,11.30
2022-10-31T23:35:28.390Z,10.53
2022-10-31T23:37:56.705Z,10.20
2022-10-31T23:40:24.881Z,10.63
2022-10-31T23:42:52.188Z,10.00
2022-10-31T23:45:19.380Z,10.30
2022-10-31T23:47:46.618Z,10.97
2022-10-31T23:50:13.914Z,9.97
2022-10-31T23:52:42.067Z,10.70
2022-10-31T23:55:09.611Z,10.23
2022-10-31T23:57:45.282Z,10.67
